Time;durP1;ratioP1;P1;durP2;ratioP2;P2;SDS_P1;SDS_P2;PMS_P1;PMS_P2;Temp;Humidity;BMP_temperature;BMP_pressure;BME280_temperature;BME280_humidity;BME280_pressure;Samples;Min_cycle;Max_cycle;Signal;HPM_P1;HPM_P2
2024/04/17 00:02:11;;;;;;;5.55;2.15;;;;;;;8.51;46.45;100593.41;5256839;27;20009;-82
2024/04/17 00:04:38;;;;;;;6.97;1.90;;;;;;;8.49;46.44;100592.69;5237259;27;20007;-82
2024/04/17 00:07:08;;;;;;;6.25;1.83;;;;;;;8.46;46.48;100589.34;5253796;27;20890;-83
2024/04/17 00:09:38;;;;;;;5.22;1.98;;;;;;;8.46;46.29;100595.66;5287254;27;20001;-81
2024/04/17 00:12:08;;;;;;;4.78;1.98;;;;;;;8.43;46.34;100593.16;5248460;27;20016;-82
2024/04/17 00:14:35;;;;;;;7.13;1.77;;;;;;;8.41;46.54;100594.31;5250092;27;20017;-82
2024/04/17 00:17:05;;;;;;;5.70;2.08;;;;;;;8.39;46.31;100593.56;5249348;27;20462;-82
2024/04/17 00:19:32;;;;;;;8.65;2.65;;;;;;;8.38;46.24;100602.72;5285557;27;20018;-83
2024/04/17 00:22:02;;;;;;;5.65;2.15;;;;;;;8.36;46.62;100601.97;5239142;27;20043;-82
2024/04/17 00:24:29;;;;;;;4.55;2.10;;;;;;;8.34;46.49;100613.03;5248894;27;20020;-82
2024/04/17 00:27:01;;;;;;;5.57;2.22;;;;;;;8.35;46.52;100614.75;5287468;27;20029;-82
2024/04/17 00:29:30;;;;;;;7.55;2.55;;;;;;;8.30;46.23;100606.09;5253994;27;20018;-83
2024/04/17 00:32:00;;;;;;;4.65;2.15;;;;;;;8.29;46.61;100605.22;5276060;27;20007;-82
2024/04/17 00:34:27;;;;;;;5.25;2.15;;;;;;;8.28;46.44;100608.06;5266616;27;20001;-82
2024/04/17 00:36:57;;;;;;;8.15;2.60;;;;;;;8.27;46.25;100618.09;5251151;27;20421;-83
2024/04/17 00:39:26;;;;;;;6.20;2.08;;;;;;;8.27;46.02;100617.25;5281953;27;20031;-83
2024/04/17 00:41:55;;;;;;;7.72;2.63;;;;;;;8.23;46.61;100616.66;5292942;26;20080;-83
2024/04/17 00:44:25;;;;;;;5.45;1.95;;;;;;;8.24;46.80;100617.50;5276212;27;20003;-82
2024/04/17 00:46:55;;;;;;;6.90;2.40;;;;;;;8.20;46.44;100618.75;5233425;27;20050;-82
2024/04/17 00:49:22;;;;;;;5.55;1.98;;;;;;;8.20;46.46;100619.59;5287434;27;20409;-83
2024/04/17 00:51:52;;;;;;;6.05;2.28;;;;;;;8.19;46.56;100617.00;5251743;27;20151;-83
2024/04/17 00:54:20;;;;;;;9.15;2.28;;;;;;;8.17;46.34;100622.59;5299376;26;20010;-83
2024/04/17 00:56:50;;;;;;;5.22;1.90;;;;;;;8.16;46.28;100626.31;5239038;27;20045;-82
2024/04/17 00:59:17;;;;;;;6.88;2.40;;;;;;;8.15;46.79;100621.84;5246879;27;20006;-81
2024/04/17 01:01:49;;;;;;;5.35;1.90;;;;;;;8.16;46.56;100618.13;5288526;27;20025;-82
2024/04/17 01:04:17;;;;;;;6.78;2.17;;;;;;;8.12;46.46;100623.91;5239818;27;20010;-81
2024/04/17 01:06:46;;;;;;;6.45;2.28;;;;;;;8.13;46.66;100615.66;5275067;27;20009;-79
2024/04/17 01:09:13;;;;;;;4.82;2.10;;;;;;;8.12;46.28;100615.72;5246324;27;20006;-80
2024/04/17 01:11:44;;;;;;;5.95;2.10;;;;;;;8.09;46.36;100614.16;5254143;27;20014;-81
2024/04/17 01:14:11;;;;;;;5.47;2.00;;;;;;;8.09;46.15;100621.47;5250610;27;20088;-81
2024/04/17 01:16:42;;;;;;;4.72;2.13;;;;;;;8.08;46.27;100612.41;5275189;27;20042;-82
2024/04/17 01:19:13;;;;;;;8.15;2.15;;;;;;;8.07;46.38;100616.13;5234846;27;20370;-81
2024/04/17 01:21:44;;;;;;;5.32;1.50;;;;;;;8.03;45.99;100609.16;5251954;27;20061;-81
2024/04/17 01:24:13;;;;;;;5.57;1.70;;;;;;;8.03;46.42;100616.47;5254196;27;20003;-80
2024/04/17 01:26:43;;;;;;;7.38;1.98;;;;;;;7.97;46.33;100606.94;5225471;27;20010;-81
2024/04/17 01:29:10;;;;;;;5.68;1.63;;;;;;;7.99;46.14;100612.28;5265683;27;20007;-80
2024/04/17 01:31:40;;;;;;;5.10;1.85;;;;;;;7.96;45.95;100602.47;5243350;27;20039;-80
2024/04/17 01:34:07;;;;;;;5.90;1.90;;;;;;;7.94;45.84;100601.72;5264874;27;20011;-80
2024/04/17 01:36:36;;;;;;;6.93;2.20;;;;;;;7.91;45.94;100597.41;5286461;27;20006;-81
2024/04/17 01:39:03;;;;;;;6.30;2.15;;;;;;;7.89;45.97;100596.66;5285061;27;20025;-80
2024/04/17 01:41:36;;;;;;;4.93;2.00;;;;;;;7.89;46.25;100601.25;5282477;26;20014;-81
2024/04/17 01:44:03;;;;;;;4.80;2.05;;;;;;;7.85;46.10;100603.34;5233919;27;20008;-80
2024/04/17 01:46:32;;;;;;;6.13;1.80;;;;;;;7.85;46.21;100606.06;5213712;27;20027;-82
2024/04/17 01:48:59;;;;;;;7.18;1.70;;;;;;;7.83;46.14;100609.94;5279336;27;20021;-81
2024/04/17 01:51:29;;;;;;;3.30;1.65;;;;;;;7.83;46.00;100610.78;5275302;27;20014;-80
2024/04/17 01:53:56;;;;;;;5.90;2.03;;;;;;;7.81;46.27;100601.88;5265305;27;20349;-81
2024/04/17 01:56:26;;;;;;;6.07;1.98;;;;;;;7.81;46.36;100606.44;5282077;26;20121;-80
2024/04/17 01:58:55;;;;;;;5.72;1.60;;;;;;;7.82;46.33;100613.63;5293372;26;20090;-81
2024/04/17 02:01:25;;;;;;;6.35;1.90;;;;;;;7.80;46.16;100616.47;5278066;27;20079;-81
2024/04/17 02:03:52;;;;;;;6.68;1.80;;;;;;;7.79;46.41;100612.00;5258310;27;20007;-80
2024/04/17 02:06:22;;;;;;;5.45;1.45;;;;;;;7.79;46.28;100614.75;5259840;27;20007;-81
2024/04/17 02:08:49;;;;;;;6.40;1.63;;;;;;;7.79;46.31;100620.19;5265633;27;20011;-81
2024/04/17 02:11:18;;;;;;;4.68;1.70;;;;;;;7.79;46.18;100625.63;5279949;27;20033;-81
2024/04/17 02:13:46;;;;;;;7.05;1.98;;;;;;;7.78;46.10;100623.91;5266853;27;20038;-81
2024/04/17 02:16:18;;;;;;;8.55;2.00;;;;;;;7.80;46.17;100623.78;5262990;27;20012;-81
2024/04/17 02:18:45;;;;;;;5.43;1.90;;;;;;;7.75;46.38;100632.34;5260311;27;20006;-80
2024/04/17 02:21:15;;;;;;;5.40;1.65;;;;;;;7.77;46.05;100629.47;5242192;27;20007;-81
2024/04/17 02:23:42;;;;;;;6.55;1.60;;;;;;;7.76;46.09;100633.22;5270429;27;20018;-81
2024/04/17 02:26:11;;;;;;;4.53;1.73;;;;;;;7.75;46.21;100629.59;5283986;27;20034;-81
2024/04/17 02:28:38;;;;;;;3.47;1.60;;;;;;;7.74;45.98;100627.00;5310929;26;20906;-81
2024/04/17 02:31:08;;;;;;;4.70;1.80;;;;;;;7.72;46.08;100629.84;5284874;27;20010;-80
2024/04/17 02:33:37;;;;;;;4.05;1.65;;;;;;;7.73;46.11;100631.59;5287419;26;20627;-81
2024/04/17 02:36:07;;;;;;;5.45;2.60;;;;;;;7.70;45.95;100631.81;5256250;27;20017;-81
2024/04/17 02:38:34;;;;;;;7.53;2.00;;;;;;;7.70;46.09;100633.66;5287956;26;20013;-80
2024/04/17 02:41:04;;;;;;;8.27;2.13;;;;;;;7.68;45.80;100633.81;5238688;27;20043;-80
2024/04/17 02:43:32;;;;;;;6.05;1.98;;;;;;;7.67;46.05;100632.06;5316010;26;20083;-80
2024/04/17 02:46:01;;;;;;;6.80;1.77;;;;;;;7.67;45.93;100633.94;5289673;26;20007;-81
2024/04/17 02:48:28;;;;;;;5.13;1.52;;;;;;;7.64;46.32;100626.84;5293247;26;20010;-81
2024/04/17 02:51:01;;;;;;;6.30;1.90;;;;;;;7.65;46.19;100625.00;5265938;27;20008;-81
2024/04/17 02:53:28;;;;;;;4.18;1.50;;;;;;;7.61;45.94;100626.22;5317835;26;20024;-80
2024/04/17 02:55:59;;;;;;;5.78;1.60;;;;;;;7.62;46.24;100619.78;5256366;27;20007;-81
2024/04/17 02:58:26;;;;;;;3.28;1.58;;;;;;;7.60;45.69;100633.53;5262888;27;20068;-81
2024/04/17 03:00:56;;;;;;;4.18;1.80;;;;;;;7.61;45.92;100627.09;5275829;27;20010;-80
2024/04/17 03:03:23;;;;;;;4.50;1.45;;;;;;;7.59;45.86;100626.38;5287246;27;20007;-81
2024/04/17 03:05:53;;;;;;;5.88;1.75;;;;;;;7.57;45.83;100631.94;5283845;27;20007;-81
2024/04/17 03:08:22;;;;;;;4.18;1.60;;;;;;;7.60;45.82;100632.69;5262596;27;20005;-82
2024/04/17 03:11:00;;;;;;;5.65;1.85;;;;;;;7.59;45.75;100634.53;5262190;27;20007;-81
2024/04/17 03:13:27;;;;;;;6.28;1.88;;;;;;;7.54;45.87;100629.44;5292664;27;20016;-80
2024/04/17 03:16:02;;;;;;;4.78;1.60;;;;;;;7.54;45.82;100632.16;5272802;27;20010;-81
2024/04/17 03:18:30;;;;;;;4.82;1.83;;;;;;;7.54;45.41;100636.72;5247419;27;20010;-80
2024/04/17 03:21:01;;;;;;;4.28;1.80;;;;;;;7.53;45.36;100640.44;5263128;27;20084;-81
2024/04/17 03:23:31;;;;;;;4.68;1.70;;;;;;;7.51;45.59;100643.31;5236098;27;20027;-81
2024/04/17 03:26:02;;;;;;;5.10;2.13;;;;;;;7.50;45.26;100652.47;5257801;27;20015;-82
2024/04/17 03:28:29;;;;;;;7.90;2.28;;;;;;;7.48;45.45;100648.13;5257294;27;20006;-81
2024/04/17 03:31:01;;;;;;;6.38;2.05;;;;;;;7.48;45.62;100651.72;5280245;27;20014;-80
2024/04/17 03:33:28;;;;;;;7.03;1.90;;;;;;;7.42;45.60;100654.91;5232830;27;20011;-81
2024/04/17 03:35:59;;;;;;;5.20;2.00;;;;;;;7.44;45.22;100652.06;5226988;27;20349;-80
2024/04/17 03:38:29;;;;;;;7.00;2.20;;;;;;;7.41;45.75;100652.31;5244883;27;20011;-80
2024/04/17 03:41:01;;;;;;;7.28;2.72;;;;;;;7.41;45.22;100646.88;5248520;26;20022;-80
2024/04/17 03:43:31;;;;;;;8.02;2.10;;;;;;;7.36;45.55;100651.78;5231242;27;20011;-81
2024/04/17 03:46:02;;;;;;;4.47;2.03;;;;;;;7.34;45.19;100654.66;5240627;27;20081;-81
2024/04/17 03:48:33;;;;;;;6.28;2.05;;;;;;;7.31;45.54;100643.97;5246392;27;20006;-79
2024/04/17 03:51:00;;;;;;;4.72;2.17;;;;;;;7.30;45.37;100650.41;5246930;27;20019;-81
2024/04/17 03:53:30;;;;;;;4.20;1.80;;;;;;;7.29;45.38;100650.53;5250496;27;20034;-81
2024/04/17 03:56:00;;;;;;;6.63;2.40;;;;;;;7.29;45.41;100651.38;5278611;27;20013;-81
2024/04/17 03:58:30;;;;;;;4.95;2.20;;;;;;;7.26;45.54;100651.66;5239506;27;20009;-81
2024/04/17 04:00:57;;;;;;;4.72;2.22;;;;;;;7.25;45.50;100654.47;5248580;27;20010;-81
2024/04/17 04:03:26;;;;;;;6.20;2.47;;;;;;;7.24;45.53;100653.59;5280531;27;20146;-80
2024/04/17 04:05:53;;;;;;;6.18;3.00;;;;;;;7.23;45.69;100659.16;5231417;27;20021;-81
2024/04/17 04:08:23;;;;;;;7.20;3.03;;;;;;;7.23;45.58;100661.88;5251134;27;20019;-79
2024/04/17 04:10:50;;;;;;;8.27;2.70;;;;;;;7.20;45.42;100663.84;5307340;26;20077;-80
2024/04/17 04:13:22;;;;;;;6.28;2.60;;;;;;;7.22;45.55;100671.03;5280285;27;20010;-81
2024/04/17 04:15:55;;;;;;;5.63;2.30;;;;;;;7.18;45.51;100668.56;5280735;26;20006;-81
2024/04/17 04:18:22;;;;;;;4.43;2.22;;;;;;;7.15;45.72;100662.47;5268092;27;20018;-81
2024/04/17 04:20:52;;;;;;;5.30;2.50;;;;;;;7.15;45.53;100666.06;5257188;27;20006;-81
2024/04/17 04:23:19;;;;;;;7.30;2.40;;;;;;;7.13;45.39;100672.59;5238180;27;20006;-80
2024/04/17 04:25:49;;;;;;;7.15;2.63;;;;;;;7.12;45.31;100671.72;5285291;26;20849;-81
2024/04/17 04:28:16;;;;;;;5.15;2.90;;;;;;;7.11;45.46;100671.84;5243709;27;20018;-81
2024/04/17 04:30:48;;;;;;;4.72;2.30;;;;;;;7.11;45.49;100666.41;5283662;27;20345;-80
2024/04/17 04:33:24;;;;;;;6.40;2.75;;;;;;;7.09;45.77;100673.84;5272911;27;20076;-81
2024/04/17 04:35:54;;;;;;;5.70;2.50;;;;;;;7.05;45.47;100669.59;5251605;27;20081;-81
2024/04/17 04:38:21;;;;;;;6.65;2.30;;;;;;;7.05;45.69;100666.88;5241735;27;20019;-81
2024/04/17 04:40:51;;;;;;;7.18;2.47;;;;;;;7.03;45.24;100669.72;5285463;27;20449;-80
2024/04/17 04:43:18;;;;;;;5.38;2.38;;;;;;;7.02;45.63;100669.84;5278105;27;20031;-80
2024/04/17 04:45:50;;;;;;;5.47;2.40;;;;;;;7.03;45.56;100671.56;5281803;27;20022;-81
2024/04/17 04:48:17;;;;;;;4.57;2.00;;;;;;;6.97;45.25;100672.91;5268738;27;20006;-81
2024/04/17 04:50:47;;;;;;;4.72;2.33;;;;;;;7.00;45.38;100680.84;5248932;27;20005;-81
2024/04/17 04:53:14;;;;;;;5.95;3.17;;;;;;;7.00;45.37;100674.53;5228601;27;20024;-81
2024/04/17 04:55:43;;;;;;;4.85;2.60;;;;;;;6.98;45.93;100681.94;5303375;26;20458;-81
2024/04/17 04:58:10;;;;;;;6.05;2.83;;;;;;;6.98;45.42;100681.94;5240525;27;20020;-80
2024/04/17 05:00:40;;;;;;;5.60;2.20;;;;;;;6.97;45.75;100680.19;5295358;26;20021;-81
2024/04/17 05:03:10;;;;;;;5.13;2.50;;;;;;;6.98;45.67;100692.81;5258539;27;20001;-81
2024/04/17 05:05:40;;;;;;;4.65;2.28;;;;;;;6.96;45.60;100695.66;5302159;26;20016;-81
2024/04/17 05:08:07;;;;;;;6.55;2.60;;;;;;;6.96;45.80;100689.34;5275306;27;20474;-80
2024/04/17 05:10:37;;;;;;;5.57;2.38;;;;;;;6.96;45.49;100692.06;5260515;27;20018;-81
2024/04/17 05:13:04;;;;;;;6.22;3.00;;;;;;;6.96;45.88;100689.34;5259824;27;20021;-81
2024/04/17 05:15:34;;;;;;;6.57;2.60;;;;;;;6.95;45.74;100693.03;5257596;27;20017;-81
2024/04/17 05:18:01;;;;;;;6.15;2.67;;;;;;;6.94;45.85;100697.59;5253049;27;20153;-82
2024/04/17 05:20:34;;;;;;;6.22;2.95;;;;;;;6.97;45.88;100697.38;5247804;27;20009;-82
2024/04/17 05:23:02;;;;;;;8.77;3.50;;;;;;;6.95;46.05;100703.91;5243535;27;20002;-78
2024/04/17 05:25:32;;;;;;;7.68;3.20;;;;;;;6.96;45.50;100694.78;5249527;27;20006;-81
2024/04/17 05:27:59;;;;;;;11.45;3.40;;;;;;;6.96;45.96;100706.53;5270156;27;20069;-80
2024/04/17 05:30:28;;;;;;;7.20;3.28;;;;;;;6.95;46.10;100698.47;5258186;27;20006;-80
2024/04/17 05:32:55;;;;;;;5.68;2.97;;;;;;;6.97;45.96;100696.53;5236119;27;20003;-81
2024/04/17 05:35:25;;;;;;;9.57;3.67;;;;;;;6.97;45.99;100697.38;5265520;26;20355;-80
2024/04/17 05:37:55;;;;;;;7.47;3.10;;;;;;;6.98;46.30;100704.56;5275269;26;20006;-80
2024/04/17 05:40:25;;;;;;;7.82;3.08;;;;;;;6.98;46.32;100701.84;5285765;27;20011;-81
2024/04/17 05:42:52;;;;;;;6.57;3.40;;;;;;;6.97;46.55;100705.56;5240116;27;20014;-80
2024/04/17 05:45:22;;;;;;;6.30;2.90;;;;;;;7.00;46.51;100707.19;5261949;27;20098;-81
2024/04/17 05:47:49;;;;;;;7.93;3.13;;;;;;;6.99;46.44;100698.16;5251993;27;20017;-81
2024/04/17 05:50:19;;;;;;;7.10;3.05;;;;;;;7.02;46.33;100702.50;5312758;26;20006;-81
2024/04/17 05:52:46;;;;;;;6.65;3.00;;;;;;;7.04;46.41;100703.22;5237231;27;20018;-79
2024/04/17 05:55:18;;;;;;;7.80;2.97;;;;;;;7.06;46.45;100699.41;5277588;27;20010;-81
2024/04/17 05:57:45;;;;;;;7.65;3.28;;;;;;;7.04;46.38;100700.50;5247725;27;20125;-81
2024/04/17 06:00:17;;;;;;;7.05;3.55;;;;;;;7.06;46.66;100691.25;5241934;27;20026;-80
2024/04/17 06:02:44;;;;;;;6.03;3.30;;;;;;;7.09;46.56;100703.78;5245148;27;20346;-81
2024/04/17 06:05:14;;;;;;;8.32;3.15;;;;;;;7.12;46.46;100708.97;5285873;27;20005;-80
2024/04/17 06:07:41;;;;;;;7.00;3.45;;;;;;;7.14;46.75;100707.00;5239906;27;20169;-80
2024/04/17 06:10:11;;;;;;;10.02;3.08;;;;;;;7.15;46.81;100708.75;5267039;27;20014;-81
2024/04/17 06:12:40;;;;;;;6.05;3.20;;;;;;;7.18;47.02;100705.81;5249579;27;20003;-81
2024/04/17 06:15:10;;;;;;;9.90;3.10;;;;;;;7.19;46.92;100713.81;5310808;26;20030;-80
2024/04/17 06:17:37;;;;;;;9.02;3.75;;;;;;;7.20;46.85;100706.53;5250596;27;20523;-81
2024/04/17 06:20:08;;;;;;;7.80;3.55;;;;;;;7.24;46.63;100709.91;5296487;26;20006;-82
2024/04/17 06:22:35;;;;;;;5.40;3.30;;;;;;;7.25;47.03;100711.66;5256844;27;20433;-81
2024/04/17 06:25:06;;;;;;;6.80;3.13;;;;;;;7.27;46.60;100715.97;5275219;27;20096;-81
2024/04/17 06:27:33;;;;;;;6.22;3.30;;;;;;;7.29;46.64;100710.41;5263009;27;20007;-82
2024/04/17 06:30:06;;;;;;;6.78;3.50;;;;;;;7.30;46.91;100718.47;5280110;26;20446;-83
2024/04/17 06:32:33;;;;;;;7.03;3.10;;;;;;;7.29;46.52;100718.56;5278536;27;20072;-82
2024/04/17 06:35:03;;;;;;;9.18;3.65;;;;;;;7.31;46.59;100719.34;5264804;27;20007;-83
2024/04/17 06:37:30;;;;;;;8.35;3.50;;;;;;;7.33;46.81;100720.97;5279628;27;20015;-83
2024/04/17 06:40:00;;;;;;;5.55;3.10;;;;;;;7.32;46.40;100713.78;5257992;27;20544;-82
2024/04/17 06:42:27;;;;;;;8.18;3.30;;;;;;;7.34;46.52;100719.13;5254150;27;20057;-82
2024/04/17 06:44:58;;;;;;;6.47;3.17;;;;;;;7.35;46.77;100724.44;5239777;27;20010;-82
2024/04/17 06:47:28;;;;;;;6.47;3.88;;;;;;;7.37;46.97;100721.56;5245403;27;20467;-82
2024/04/17 06:49:58;;;;;;;7.13;3.13;;;;;;;7.35;46.60;100721.72;5257241;27;20452;-82
2024/04/17 06:52:25;;;;;;;5.93;3.20;;;;;;;7.35;47.09;100716.28;5259903;27;20363;-82
2024/04/17 06:54:55;;;;;;;7.55;3.55;;;;;;;7.35;46.88;100724.44;5291820;27;20014;-80
2024/04/17 06:57:22;;;;;;;4.68;3.03;;;;;;;7.35;46.55;100720.84;5243899;27;20003;-82
2024/04/17 06:59:52;;;;;;;6.43;3.60;;;;;;;7.34;46.70;100714.53;5243506;27;20017;-81
2024/04/17 07:02:19;;;;;;;7.60;3.97;;;;;;;7.34;46.88;100725.44;5243981;27;20010;-82
2024/04/17 07:04:51;;;;;;;7.53;3.40;;;;;;;7.35;46.97;100721.72;5301959;26;20068;-82
2024/04/17 07:07:18;;;;;;;5.03;3.10;;;;;;;7.31;46.55;100722.94;5244669;27;20014;-81
2024/04/17 07:09:48;;;;;;;4.70;2.70;;;;;;;7.35;46.84;100720.84;5274796;26;20006;-81
2024/04/17 07:12:16;;;;;;;5.57;3.10;;;;;;;7.35;46.75;100719.00;5261332;27;20021;-81
2024/04/17 07:14:45;;;;;;;5.07;2.63;;;;;;;7.36;47.02;100723.44;5251685;27;20081;-80
2024/04/17 07:17:12;;;;;;;4.30;2.45;;;;;;;7.37;46.62;100716.13;5278934;26;20006;-80
2024/04/17 07:19:46;;;;;;;5.70;2.72;;;;;;;7.38;47.02;100721.47;5284753;26;20011;-80
2024/04/17 07:22:15;;;;;;;5.40;2.45;;;;;;;7.40;47.26;100718.63;5303066;26;20043;-81
2024/04/17 07:24:45;;;;;;;4.10;2.40;;;;;;;7.40;46.84;100724.09;5325532;26;20006;-81
2024/04/17 07:27:12;;;;;;;4.05;2.20;;;;;;;7.39;47.13;100719.63;5235359;27;20047;-81
2024/04/17 07:29:42;;;;;;;4.35;2.38;;;;;;;7.40;46.73;100711.34;5272864;27;20019;-81
2024/04/17 07:32:09;;;;;;;3.75;2.15;;;;;;;7.40;47.02;100719.50;5244179;27;20007;-81
2024/04/17 07:34:39;;;;;;;3.60;1.88;;;;;;;7.41;46.99;100717.66;5254433;27;20272;-80
2024/04/17 07:37:06;;;;;;;3.45;2.00;;;;;;;7.41;47.02;100715.81;5277863;27;20055;-80
2024/04/17 07:39:38;;;;;;;3.65;1.63;;;;;;;7.44;47.23;100715.53;5254876;27;20006;-81
2024/04/17 07:42:06;;;;;;;2.55;1.60;;;;;;;7.39;46.92;100712.31;5300312;27;20275;-81
2024/04/17 07:44:35;;;;;;;3.47;1.50;;;;;;;7.41;46.99;100710.34;5248052;27;20354;-80
2024/04/17 07:47:02;;;;;;;3.70;1.80;;;;;;;7.43;47.45;100712.97;5273992;26;20022;-81
2024/04/17 07:49:32;;;;;;;3.38;1.75;;;;;;;7.46;47.54;100710.84;5253792;27;20478;-81
2024/04/17 07:51:59;;;;;;;3.65;1.60;;;;;;;7.48;47.82;100713.47;5285547;27;20090;-82
2024/04/17 07:54:29;;;;;;;3.67;1.70;;;;;;;7.50;47.45;100706.94;5254004;27;20010;-81
2024/04/17 07:56:59;;;;;;;3.63;1.90;;;;;;;7.56;48.11;100713.75;5283464;26;20038;-81
2024/04/17 07:59:28;;;;;;;2.45;1.70;;;;;;;7.57;47.62;100718.22;5249410;27;20061;-81
2024/04/17 08:01:58;;;;;;;3.20;1.60;;;;;;;7.58;47.35;100712.66;5282111;26;20019;-81
2024/04/17 08:04:28;;;;;;;4.50;1.50;;;;;;;7.64;47.86;100718.59;5250301;27;20081;-81
2024/04/17 08:06:55;;;;;;;3.05;1.67;;;;;;;7.68;47.73;100722.84;5273696;27;22642;-81
2024/04/17 08:09:24;;;;;;;2.90;1.40;;;;;;;7.70;47.46;100712.66;5244404;27;20007;-81
2024/04/17 08:11:52;;;;;;;2.33;1.27;;;;;;;7.71;47.53;100712.53;5265698;27;20133;-80
2024/04/17 08:14:25;;;;;;;3.30;1.58;;;;;;;7.75;47.67;100708.63;5213434;27;20007;-81
2024/04/17 08:16:52;;;;;;;;;;;;;;;7.49;48.13;100718.81;5215654;27;20034;-81
2024/04/17 08:19:22;;;;;;;3.30;1.83;;;;;;;7.70;47.54;100718.09;5281643;27;19932;-81
2024/04/17 08:21:48;;;;;;;3.28;1.83;;;;;;;7.75;47.53;100716.78;5266809;27;20024;-81
2024/04/17 08:24:19;;;;;;;2.72;1.65;;;;;;;7.76;47.41;100718.53;5249861;27;20380;-81
2024/04/17 08:26:47;;;;;;;3.58;1.90;;;;;;;7.77;47.26;100722.09;5276095;26;20043;-80
2024/04/17 08:29:17;;;;;;;3.15;1.55;;;;;;;7.77;47.49;100722.09;5239409;27;20015;-82
2024/04/17 08:31:47;;;;;;;3.90;1.90;;;;;;;7.79;47.57;100723.72;5243159;27;20007;-81
2024/04/17 08:34:17;;;;;;;3.00;1.70;;;;;;;7.78;47.46;100719.25;5225609;27;20022;-81
2024/04/17 08:36:44;;;;;;;2.60;1.60;;;;;;;7.78;47.18;100718.38;5227264;27;20726;-82
2024/04/17 08:39:14;;;;;;;4.25;1.50;;;;;;;7.79;47.40;100717.41;5219828;27;20046;-81
2024/04/17 08:41:47;;;;;;;2.47;1.55;;;;;;;7.80;47.23;100717.28;5263313;27;20375;-81
2024/04/17 08:44:19;;;;;;;3.25;1.85;;;;;;;7.82;47.48;100725.34;5251662;27;20008;-82
2024/04/17 08:46:51;;;;;;;3.38;2.10;;;;;;;7.83;47.65;100722.50;5221247;27;20015;-81
2024/04/17 08:49:22;;;;;;;5.68;2.33;;;;;;;7.84;47.34;100728.81;5229917;27;20483;-81
2024/04/17 08:51:49;;;;;;;3.67;2.60;;;;;;;7.85;47.92;100731.41;5253143;27;20007;-81
2024/04/17 08:54:19;;;;;;;4.50;2.63;;;;;;;7.87;47.88;100723.09;5230716;27;20024;-80
2024/04/17 08:56:46;;;;;;;5.07;2.58;;;;;;;7.87;47.73;100718.53;5279463;27;20007;-81
2024/04/17 08:59:15;;;;;;;3.78;2.60;;;;;;;7.90;47.66;100722.88;5242058;27;20021;-81
2024/04/17 09:01:45;;;;;;;3.90;2.65;;;;;;;7.94;48.02;100724.34;5212657;27;20030;-81
2024/04/17 09:04:18;;;;;;;4.07;2.90;;;;;;;7.99;47.84;100729.47;5198710;27;20019;-81
2024/04/17 09:06:47;;;;;;;3.55;2.70;;;;;;;7.98;48.01;100728.59;5251028;27;20015;-82
2024/04/17 09:09:19;;;;;;;4.30;2.92;;;;;;;8.03;48.01;100728.22;5228116;27;20506;-81
2024/04/17 09:11:47;;;;;;;4.50;2.67;;;;;;;8.04;47.93;100732.69;5290122;27;20483;-81
2024/04/17 09:14:20;;;;;;;4.35;3.05;;;;;;;8.11;48.45;100733.94;5218649;27;20455;-82
2024/04/17 09:16:47;;;;;;;5.15;2.65;;;;;;;8.15;48.14;100730.03;5256191;27;20007;-82
2024/04/17 09:19:20;;;;;;;4.28;3.17;;;;;;;8.20;48.33;100728.66;5258667;27;20011;-82
2024/04/17 09:21:47;;;;;;;5.05;2.58;;;;;;;8.20;48.00;100719.59;5253557;27;20003;-82
2024/04/17 09:24:17;;;;;;;5.20;2.70;;;;;;;8.24;48.33;100727.44;5228348;27;20025;-82
2024/04/17 09:26:44;;;;;;;4.05;2.97;;;;;;;8.29;48.10;100727.06;5267105;26;20013;-82
2024/04/17 09:29:17;;;;;;;5.07;2.80;;;;;;;8.34;47.92;100725.69;5292889;27;20017;-82
2024/04/17 09:31:44;;;;;;;4.78;2.92;;;;;;;8.36;47.96;100725.56;5287148;27;20002;-82
2024/04/17 09:34:16;;;;;;;6.15;3.50;;;;;;;8.39;47.82;100729.91;5302222;27;20013;-82
2024/04/17 09:36:47;;;;;;;4.53;3.00;;;;;;;8.41;47.75;100722.47;5243332;27;20010;-82
2024/04/17 09:39:17;;;;;;;4.28;3.10;;;;;;;8.41;47.40;100719.75;5241502;27;20022;-82
2024/04/17 09:41:46;;;;;;;4.60;3.20;;;;;;;8.43;47.16;100720.47;5284544;27;20009;-82
2024/04/17 09:44:20;;;;;;;5.50;3.28;;;;;;;8.45;47.55;100715.78;5270155;27;20418;-82
2024/04/17 09:46:54;;;;;;;5.00;2.80;;;;;;;8.48;47.52;100716.41;5240575;27;20017;-82
2024/04/17 09:49:30;;;;;;;3.85;2.72;;;;;;;8.46;47.16;100721.09;5306756;26;20011;-82
2024/04/17 09:52:03;;;;;;;4.00;2.58;;;;;;;8.48;47.55;100710.94;5261400;27;20025;-82
2024/04/17 09:54:33;;;;;;;3.33;2.38;;;;;;;8.51;47.13;100716.13;5243625;27;20007;-82
2024/04/17 09:57:01;;;;;;;3.92;2.33;;;;;;;8.51;47.42;100713.41;5243506;27;20014;-82
2024/04/17 09:59:32;;;;;;;4.10;2.40;;;;;;;8.55;47.44;100716.75;5248448;27;20007;-82
2024/04/17 10:02:00;;;;;;;4.38;2.15;;;;;;;8.55;47.52;100717.63;5275546;27;20018;-82
2024/04/17 10:04:32;;;;;;;4.30;2.20;;;;;;;8.59;47.64;100718.22;5243988;27;20066;-82
2024/04/17 10:07:03;;;;;;;4.57;2.13;;;;;;;8.58;47.50;100727.44;5285456;26;20083;-82
2024/04/17 10:09:35;;;;;;;4.22;1.90;;;;;;;8.60;47.06;100717.25;5285126;26;20007;-81
2024/04/17 10:12:03;;;;;;;3.55;1.92;;;;;;;8.62;47.07;100712.53;5213587;27;20015;-82
2024/04/17 10:14:34;;;;;;;4.80;1.80;;;;;;;8.61;47.33;100708.06;5232668;27;20020;-82
2024/04/17 10:17:02;;;;;;;5.15;1.60;;;;;;;8.61;47.36;100706.22;5224197;27;20023;-82
2024/04/17 10:19:51;;;;;;;3.72;1.60;;;;;;;8.64;47.79;100699.66;5251575;27;20023;-82
2024/04/17 10:22:25;;;;;;;5.53;2.00;;;;;;;8.65;47.72;100707.72;5206645;27;20083;-81
2024/04/17 10:24:52;;;;;;;3.95;1.73;;;;;;;8.63;47.83;100706.97;5275154;27;20006;-82
2024/04/17 10:27:24;;;;;;;2.70;1.60;;;;;;;8.68;47.93;100712.03;5240092;27;20010;-81
2024/04/17 10:29:51;;;;;;;5.15;1.70;;;;;;;8.68;47.76;100701.13;5244832;27;20022;-82
2024/04/17 10:32:21;;;;;;;3.38;1.65;;;;;;;8.71;48.02;100701.75;5234229;27;20004;-82
2024/04/17 10:34:49;;;;;;;5.28;1.90;;;;;;;8.77;47.81;100696.75;5274498;27;20006;-82
2024/04/17 10:37:22;;;;;;;3.35;1.55;;;;;;;8.84;48.16;100704.31;5258964;27;20016;-82
2024/04/17 10:39:54;;;;;;;4.32;1.80;;;;;;;8.90;48.32;100705.69;5289568;27;20018;-82
2024/04/17 10:42:25;;;;;;;4.83;1.90;;;;;;;8.93;48.68;100695.38;5306234;26;20087;-82
2024/04/17 10:44:55;;;;;;;3.55;1.90;;;;;;;9.03;48.46;100698.19;5320806;26;20335;-82
2024/04/17 10:47:28;;;;;;;3.60;1.77;;;;;;;9.11;48.76;100690.22;5305543;26;20024;-82
2024/04/17 10:49:56;;;;;;;5.03;1.92;;;;;;;9.16;48.72;100693.47;5269086;27;20037;-82
2024/04/17 10:52:27;;;;;;;3.28;1.95;;;;;;;9.28;48.42;100694.28;5285719;27;20001;-82
2024/04/17 10:54:59;;;;;;;4.93;1.80;;;;;;;9.39;48.48;100688.81;5294870;27;20018;-82
2024/04/17 10:57:30;;;;;;;2.92;1.77;;;;;;;9.46;48.60;100685.41;5303659;26;20006;-82
2024/04/17 10:59:57;;;;;;;2.97;1.45;;;;;;;9.55;48.28;100674.69;5283510;26;20006;-81
2024/04/17 11:02:27;;;;;;;3.78;1.50;;;;;;;9.66;48.47;100667.28;5303151;26;20382;-82
2024/04/17 11:04:54;;;;;;;2.65;1.50;;;;;;;9.76;48.15;100667.34;5262003;27;20010;-82
2024/04/17 11:07:24;;;;;;;5.95;1.70;;;;;;;9.88;47.88;100670.91;5283153;27;20005;-82
2024/04/17 11:09:51;;;;;;;3.03;1.40;;;;;;;10.00;47.86;100672.53;5264753;27;20013;-81
2024/04/17 11:12:24;;;;;;;2.75;1.40;;;;;;;10.11;46.93;100665.13;5305766;27;20030;-82
2024/04/17 11:14:59;;;;;;;3.60;1.40;;;;;;;10.21;46.12;100660.56;5259496;27;20010;-81
2024/04/17 11:17:29;;;;;;;3.85;1.50;;;;;;;10.31;46.74;100654.28;5259492;27;20461;-82
2024/04/17 11:19:56;;;;;;;2.78;1.23;;;;;;;10.40;46.40;100659.78;5308302;26;20024;-82
2024/04/17 11:22:26;;;;;;;3.55;1.42;;;;;;;10.48;46.29;100653.63;5323740;26;20013;-82
2024/04/17 11:24:57;;;;;;;3.70;1.33;;;;;;;10.58;45.96;100658.16;5334832;26;20009;-83
2024/04/17 11:27:30;;;;;;;4.03;1.38;;;;;;;10.69;44.87;100659.03;5270887;27;20461;-82
2024/04/17 11:29:58;;;;;;;7.68;1.88;;;;;;;10.71;45.29;100657.91;5284355;27;20450;-83
2024/04/17 11:32:30;;;;;;;3.20;1.50;;;;;;;10.81;44.36;100650.56;5278839;27;20012;-83
2024/04/17 11:35:07;;;;;;;;;;;;;;;10.57;45.02;100650.94;5269136;27;20606;-83
2024/04/17 11:37:37;;;;;;;3.28;1.40;;;;;;;10.82;44.96;100641.34;5275412;27;19933;-83
2024/04/17 11:40:05;;;;;;;3.05;1.48;;;;;;;10.94;44.99;100642.97;5300893;27;20012;-82
2024/04/17 11:42:39;;;;;;;3.33;1.52;;;;;;;10.99;43.83;100639.78;5266100;27;20049;-82
2024/04/17 11:45:08;;;;;;;3.75;1.30;;;;;;;11.04;44.43;100642.13;5285892;27;20021;-83